createdAt,value
2023-02-15T00:00:23.974Z,3.96
2023-02-15T00:01:24.064Z,3.94
2023-02-15T00:02:24.167Z,3.94
2023-02-15T00:03:24.213Z,3.96
2023-02-15T00:04:24.296Z,3.94
2023-02-15T00:05:24.394Z,3.96
2023-02-15T00:06:24.448Z,3.96
2023-02-15T00:07:24.534Z,3.97
2023-02-15T00:08:24.600Z,3.97
2023-02-15T00:09:24.707Z,3.96
2023-02-15T00:10:24.801Z,3.96
2023-02-15T00:11:24.884Z,3.94
2023-02-15T00:12:24.985Z,3.94
2023-02-15T00:13:25.020Z,3.94
2023-02-15T00:14:25.068Z,3.96
2023-02-15T00:15:25.175Z,3.94
2023-02-15T00:16:25.263Z,3.94
2023-02-15T00:17:25.340Z,3.94
2023-02-15T00:18:25.379Z,3.92
2023-02-15T00:19:25.479Z,3.92
2023-02-15T00:20:25.539Z,3.90
2023-02-15T00:21:25.635Z,3.90
2023-02-15T00:22:25.738Z,3.89
2023-02-15T00:23:25.763Z,3.89
2023-02-15T00:24:25.852Z,3.90
2023-02-15T00:25:25.954Z,3.89
2023-02-15T00:26:26.011Z,3.88
2023-02-15T00:27:26.136Z,3.88
2023-02-15T00:28:26.204Z,3.88
2023-02-15T00:29:26.306Z,3.86
2023-02-15T00:30:26.537Z,3.86
2023-02-15T00:31:26.548Z,3.86
2023-02-15T00:32:26.558Z,3.83
2023-02-15T00:33:26.633Z,3.80
2023-02-15T00:34:26.679Z,3.79
2023-02-15T00:35:26.806Z,3.76
2023-02-15T00:36:26.856Z,3.75
2023-02-15T00:37:26.984Z,3.72
2023-02-15T00:38:27.053Z,3.75
2023-02-15T00:39:27.134Z,3.71
2023-02-15T00:40:27.231Z,3.70
2023-02-15T00:41:27.335Z,3.68
2023-02-15T00:42:27.441Z,3.68
2023-02-15T00:43:27.521Z,3.67
2023-02-15T00:44:27.574Z,3.65
2023-02-15T00:45:27.681Z,3.65
2023-02-15T00:46:27.727Z,3.65
2023-02-15T00:47:27.869Z,3.64
2023-02-15T00:48:27.889Z,3.64
2023-02-15T00:49:28.002Z,3.62
2023-02-15T00:50:28.051Z,3.64
2023-02-15T00:51:28.160Z,3.62
2023-02-15T00:52:28.274Z,3.62
2023-02-15T00:53:28.363Z,3.61
2023-02-15T00:54:28.401Z,3.60
2023-02-15T00:55:28.457Z,3.60
2023-02-15T00:56:28.493Z,3.60
2023-02-15T00:57:28.601Z,3.61
2023-02-15T00:58:28.657Z,3.60
2023-02-15T00:59:28.752Z,3.58
2023-02-15T01:00:28.819Z,3.58
2023-02-15T01:01:29.613Z,3.58
2023-02-15T01:02:29.022Z,3.60
2023-02-15T01:03:29.094Z,3.58
2023-02-15T01:04:29.211Z,3.57
2023-02-15T01:05:29.253Z,3.57
2023-02-15T01:06:29.303Z,3.57
2023-02-15T01:07:29.432Z,3.58
2023-02-15T01:08:29.495Z,3.57
2023-02-15T01:09:29.561Z,3.54
2023-02-15T01:10:29.644Z,3.54
2023-02-15T01:11:29.748Z,3.54
2023-02-15T01:12:29.845Z,3.53
2023-02-15T01:13:29.880Z,3.54
2023-02-15T01:14:29.936Z,3.57
2023-02-15T01:15:30.046Z,3.54
2023-02-15T01:16:30.213Z,3.54
2023-02-15T01:17:30.211Z,3.53
2023-02-15T01:18:30.266Z,3.54
2023-02-15T01:19:30.379Z,3.53
2023-02-15T01:20:30.427Z,3.53
2023-02-15T01:21:30.535Z,3.54
2023-02-15T01:22:30.665Z,3.52
2023-02-15T01:23:30.682Z,3.52
2023-02-15T01:24:30.768Z,3.52
2023-02-15T01:25:30.868Z,3.52
2023-02-15T01:26:30.963Z,3.50
2023-02-15T01:27:31.089Z,3.50
2023-02-15T01:28:31.145Z,3.49
2023-02-15T01:29:31.213Z,3.49
2023-02-15T01:30:31.264Z,3.49
2023-02-15T01:31:31.482Z,3.49
2023-02-15T01:32:31.486Z,3.49
2023-02-15T01:33:31.511Z,3.46
2023-02-15T01:34:31.570Z,3.44
2023-02-15T01:35:31.674Z,3.43
2023-02-15T01:36:31.723Z,3.39
2023-02-15T01:37:31.861Z,3.34
2023-02-15T01:38:31.916Z,3.27
2023-02-15T01:39:32.007Z,3.24
2023-02-15T01:40:32.102Z,3.23
2023-02-15T01:41:32.196Z,3.18
2023-02-15T01:42:32.312Z,3.16
2023-02-15T01:43:32.359Z,3.13
2023-02-15T01:44:32.454Z,3.09
2023-02-15T01:45:32.556Z,3.09
2023-02-15T01:46:32.679Z,3.07
2023-02-15T01:47:32.706Z,3.07
2023-02-15T01:48:32.764Z,3.06
2023-02-15T01:49:32.879Z,3.06
2023-02-15T01:50:32.913Z,3.06
2023-02-15T01:51:33.042Z,3.05
2023-02-15T01:52:33.140Z,3.05
2023-02-15T01:53:33.209Z,3.05
2023-02-15T01:54:33.297Z,3.06
2023-02-15T01:55:33.408Z,3.06
2023-02-15T01:56:33.458Z,3.06
2023-02-15T01:57:33.584Z,3.05
2023-02-15T01:58:33.647Z,3.03
2023-02-15T01:59:33.747Z,3.03
2023-02-15T02:00:33.797Z,3.03
2023-02-15T02:01:33.949Z,3.03
2023-02-15T02:02:34.068Z,3.03
2023-02-15T02:03:34.057Z,3.05
2023-02-15T02:04:34.160Z,3.05
2023-02-15T02:05:34.256Z,3.05
2023-02-15T02:06:34.307Z,3.05
2023-02-15T02:07:35.040Z,3.05
2023-02-15T02:08:34.457Z,3.05
2023-02-15T02:09:34.572Z,3.06
2023-02-15T02:10:34.631Z,3.06
2023-02-15T02:11:34.716Z,3.06
2023-02-15T02:12:34.844Z,3.06
2023-02-15T02:13:34.914Z,3.07
2023-02-15T02:14:35.006Z,3.07
2023-02-15T02:15:35.155Z,3.07
2023-02-15T02:16:35.198Z,3.06
2023-02-15T02:17:35.315Z,3.06
2023-02-15T02:18:35.375Z,3.09
2023-02-15T02:19:35.481Z,3.09
2023-02-15T02:20:35.535Z,3.07
2023-02-15T02:21:35.629Z,3.09
2023-02-15T02:22:35.749Z,3.09
2023-02-15T02:23:35.813Z,3.09
2023-02-15T02:24:35.867Z,3.07
2023-02-15T02:25:35.960Z,3.07
2023-02-15T02:26:36.065Z,3.07
2023-02-15T02:27:36.142Z,3.07
2023-02-15T02:28:36.203Z,3.06
2023-02-15T02:29:36.330Z,3.06
2023-02-15T02:30:36.695Z,3.06
2023-02-15T02:31:36.605Z,3.06
2023-02-15T02:32:36.592Z,3.06
2023-02-15T02:33:36.649Z,3.07
2023-02-15T02:34:36.748Z,3.06
2023-02-15T02:35:36.999Z,3.06
2023-02-15T02:36:36.895Z,3.07
2023-02-15T02:37:37.043Z,3.06
2023-02-15T02:38:37.058Z,3.06
2023-02-15T02:39:37.168Z,3.05
2023-02-15T02:40:37.216Z,3.05
2023-02-15T02:41:37.327Z,3.05
2023-02-15T02:42:37.394Z,3.06
2023-02-15T02:43:37.451Z,3.05
2023-02-15T02:44:37.509Z,3.05
2023-02-15T02:45:37.604Z,3.03
2023-02-15T02:46:37.727Z,3.03
2023-02-15T02:47:37.826Z,3.03
2023-02-15T02:48:37.886Z,3.02
2023-02-15T02:49:37.992Z,3.00
2023-02-15T02:50:38.048Z,2.97
2023-02-15T02:51:38.148Z,2.98
2023-02-15T02:52:38.255Z,2.97
2023-02-15T02:53:38.307Z,2.97
2023-02-15T02:54:38.383Z,2.97
2023-02-15T02:55:38.516Z,2.94
2023-02-15T02:56:38.569Z,2.94
2023-02-15T02:57:38.692Z,2.94
2023-02-15T02:58:38.735Z,2.94
2023-02-15T02:59:38.853Z,2.94
2023-02-15T03:00:38.909Z,2.94
2023-02-15T03:01:39.063Z,2.94
2023-02-15T03:02:39.188Z,2.94
2023-02-15T03:03:39.147Z,2.95
2023-02-15T03:04:39.255Z,2.94
2023-02-15T03:05:39.304Z,2.94
2023-02-15T03:06:39.406Z,2.91
2023-02-15T03:07:39.525Z,2.92
2023-02-15T03:08:39.593Z,2.92
2023-02-15T03:09:39.669Z,2.92
2023-02-15T03:10:39.750Z,2.91
2023-02-15T03:11:39.836Z,2.91
2023-02-15T03:12:39.973Z,2.91
2023-02-15T03:13:40.041Z,2.89
2023-02-15T03:14:40.094Z,2.91
2023-02-15T03:15:40.288Z,2.89
2023-02-15T03:16:40.281Z,2.87
2023-02-15T03:17:40.376Z,2.87
2023-02-15T03:18:40.499Z,2.87
2023-02-15T03:19:40.512Z,2.87
2023-02-15T03:20:40.588Z,2.85
2023-02-15T03:21:40.691Z,2.84
2023-02-15T03:22:40.813Z,2.84
2023-02-15T03:23:40.839Z,2.84
2023-02-15T03:24:40.951Z,2.84
2023-02-15T03:25:41.051Z,2.84
2023-02-15T03:26:41.143Z,2.82
2023-02-15T03:27:41.250Z,2.81
2023-02-15T03:28:41.264Z,2.81
2023-02-15T03:29:41.317Z,2.77
2023-02-15T03:30:41.424Z,2.79
2023-02-15T03:31:41.680Z,2.79
2023-02-15T03:32:41.612Z,2.77
2023-02-15T03:33:41.669Z,2.79
2023-02-15T03:34:41.793Z,2.77
2023-02-15T03:35:41.852Z,2.77
2023-02-15T03:36:41.912Z,2.77
2023-02-15T03:37:42.031Z,2.76
2023-02-15T03:38:42.046Z,2.76
2023-02-15T03:39:42.108Z,2.74
2023-02-15T03:40:42.198Z,2.74
2023-02-15T03:41:42.264Z,2.74
2023-02-15T03:42:42.375Z,2.73
2023-02-15T03:43:42.418Z,2.73
2023-02-15T03:44:42.516Z,2.73
2023-02-15T03:45:42.589Z,2.73
2023-02-15T03:46:42.684Z,2.74
2023-02-15T03:47:42.709Z,2.71
2023-02-15T03:48:42.792Z,2.71
2023-02-15T03:49:42.837Z,2.71
2023-02-15T03:50:42.937Z,2.73
2023-02-15T03:51:43.043Z,2.73
2023-02-15T03:52:43.126Z,2.73
2023-02-15T03:53:43.186Z,2.71
2023-02-15T03:54:43.293Z,2.71
2023-02-15T03:55:43.341Z,2.71
2023-02-15T03:56:43.443Z,2.71
2023-02-15T03:57:43.557Z,2.71
2023-02-15T03:58:43.611Z,2.71
2023-02-15T03:59:43.662Z,2.70
2023-02-15T04:00:43.857Z,2.66
2023-02-15T04:01:43.849Z,2.67
2023-02-15T04:02:44.038Z,2.67
2023-02-15T04:03:44.011Z,2.67
2023-02-15T04:04:44.109Z,2.66
2023-02-15T04:05:44.202Z,2.66
2023-02-15T04:06:44.300Z,2.64
2023-02-15T04:07:44.376Z,2.64
2023-02-15T04:08:44.436Z,2.64
2023-02-15T04:09:44.497Z,2.67
2023-02-15T04:10:44.589Z,2.66
2023-02-15T04:11:44.655Z,2.66
2023-02-15T04:12:44.775Z,2.66
2023-02-15T04:13:44.839Z,2.66
2023-02-15T04:14:44.927Z,2.66
2023-02-15T04:15:44.984Z,2.64
2023-02-15T04:16:45.118Z,2.66
2023-02-15T04:17:45.188Z,2.66
2023-02-15T04:18:45.259Z,2.66
2023-02-15T04:19:45.328Z,2.66
2023-02-15T04:20:45.402Z,2.63
2023-02-15T04:21:45.458Z,2.66
2023-02-15T04:22:45.580Z,2.66
2023-02-15T04:23:45.629Z,2.64
2023-02-15T04:24:45.744Z,2.64
2023-02-15T04:25:45.820Z,2.63
2023-02-15T04:26:45.889Z,2.64
2023-02-15T04:27:45.946Z,2.63
2023-02-15T04:28:46.009Z,2.64
2023-02-15T04:29:46.059Z,2.63
2023-02-15T04:30:46.128Z,2.63
2023-02-15T04:31:46.353Z,2.63
2023-02-15T04:32:46.296Z,2.63
2023-02-15T04:33:46.351Z,2.63
2023-02-15T04:34:46.484Z,2.63
2023-02-15T04:35:46.516Z,2.63
2023-02-15T04:36:46.591Z,2.64
2023-02-15T04:37:46.658Z,2.63
2023-02-15T04:38:46.712Z,2.63
2023-02-15T04:39:46.802Z,2.61
2023-02-15T04:40:46.905Z,2.61
2023-02-15T04:41:46.961Z,2.61
2023-02-15T04:42:47.072Z,2.59
2023-02-15T04:43:47.137Z,2.58
2023-02-15T04:44:47.252Z,2.59
2023-02-15T04:45:47.386Z,2.58
2023-02-15T04:46:47.403Z,2.56
2023-02-15T04:47:47.489Z,2.56
2023-02-15T04:48:47.573Z,2.55
2023-02-15T04:49:47.638Z,2.56
2023-02-15T04:50:47.761Z,2.56
2023-02-15T04:51:47.794Z,2.55
2023-02-15T04:52:47.933Z,2.56
2023-02-15T04:53:48.050Z,2.53
2023-02-15T04:54:48.076Z,2.55
2023-02-15T04:55:48.128Z,2.53
2023-02-15T04:56:48.232Z,2.55
2023-02-15T04:57:48.298Z,2.53
2023-02-15T04:58:48.354Z,2.55
2023-02-15T04:59:48.443Z,2.53
2023-02-15T05:00:48.628Z,2.55
2023-02-15T05:01:48.598Z,2.52
2023-02-15T05:02:48.743Z,2.52
2023-02-15T05:03:48.780Z,2.52
2023-02-15T05:04:48.901Z,2.52
2023-02-15T05:05:48.971Z,2.53
2023-02-15T05:06:49.060Z,2.51
2023-02-15T05:07:49.130Z,2.53
2023-02-15T05:08:49.191Z,2.51
2023-02-15T05:09:49.261Z,2.52
2023-02-15T05:10:49.345Z,2.52
2023-02-15T05:11:49.444Z,2.51
2023-02-15T05:12:49.568Z,2.52
2023-02-15T05:13:49.638Z,2.49
2023-02-15T05:14:49.702Z,2.49
2023-02-15T05:15:49.757Z,2.49
2023-02-15T05:16:49.924Z,2.48
2023-02-15T05:17:49.960Z,2.48
2023-02-15T05:18:50.051Z,2.46
2023-02-15T05:19:50.103Z,2.46
2023-02-15T05:20:50.235Z,2.46
2023-02-15T05:21:50.294Z,2.46
2023-02-15T05:22:50.401Z,2.48
2023-02-15T05:23:50.468Z,2.46
2023-02-15T05:24:50.587Z,2.46
2023-02-15T05:25:50.624Z,2.46
2023-02-15T05:26:50.749Z,2.46
2023-02-15T05:27:50.807Z,2.46
2023-02-15T05:28:50.868Z,2.48
2023-02-15T05:29:51.001Z,2.48
2023-02-15T05:30:51.263Z,2.46
2023-02-15T05:31:51.291Z,2.48
2023-02-15T05:32:51.256Z,2.48
2023-02-15T05:33:51.231Z,2.49
2023-02-15T05:34:51.324Z,2.48
2023-02-15T05:35:51.379Z,2.48
2023-02-15T05:36:51.563Z,2.48
2023-02-15T05:37:51.580Z,2.48
2023-02-15T05:38:51.711Z,2.48
2023-02-15T05:39:51.707Z,2.49
2023-02-15T05:40:51.809Z,2.48
2023-02-15T05:41:51.904Z,2.49
2023-02-15T05:42:51.986Z,2.48
2023-02-15T05:43:52.035Z,2.48
2023-02-15T05:44:52.137Z,2.49
2023-02-15T05:45:52.254Z,2.46
2023-02-15T05:46:52.290Z,2.46
2023-02-15T05:47:52.394Z,2.48
2023-02-15T05:48:52.449Z,2.46
2023-02-15T05:49:52.536Z,2.48
2023-02-15T05:50:52.635Z,2.46
2023-02-15T05:51:52.689Z,2.45
2023-02-15T05:52:52.821Z,2.48
2023-02-15T05:53:52.868Z,2.45
2023-02-15T05:54:52.975Z,2.45
2023-02-15T05:55:53.024Z,2.44
2023-02-15T05:56:53.140Z,2.41
2023-02-15T05:57:53.220Z,2.41
2023-02-15T05:58:53.280Z,2.40
2023-02-15T05:59:53.336Z,2.41
2023-02-15T06:00:53.440Z,2.44
2023-02-15T06:01:53.498Z,2.44
2023-02-15T06:02:53.624Z,2.40
2023-02-15T06:03:53.675Z,2.40
2023-02-15T06:04:53.763Z,2.40
2023-02-15T06:05:53.816Z,2.40
2023-02-15T06:06:53.912Z,2.38
2023-02-15T06:07:54.007Z,2.38
2023-02-15T06:08:54.044Z,2.38
2023-02-15T06:09:54.092Z,2.38
2023-02-15T06:10:54.223Z,2.38
2023-02-15T06:11:54.274Z,2.37
2023-02-15T06:12:54.403Z,2.37
2023-02-15T06:13:54.462Z,2.35
2023-02-15T06:14:54.563Z,2.35
2023-02-15T06:15:54.701Z,2.34
2023-02-15T06:16:54.740Z,2.34
2023-02-15T06:17:54.820Z,2.34
2023-02-15T06:18:54.877Z,2.33
2023-02-15T06:19:54.935Z,2.31
2023-02-15T06:20:55.001Z,2.33
2023-02-15T06:21:55.058Z,2.30
2023-02-15T06:22:55.203Z,2.31
2023-02-15T06:23:55.250Z,2.30
2023-02-15T06:24:55.346Z,2.31
2023-02-15T06:25:55.427Z,2.31
2023-02-15T06:26:55.473Z,2.28
2023-02-15T06:27:55.544Z,2.28
2023-02-15T06:28:55.607Z,2.30
2023-02-15T06:29:55.675Z,2.30
2023-02-15T06:30:55.855Z,2.28
2023-02-15T06:31:56.044Z,2.28
2023-02-15T06:32:55.993Z,2.28
2023-02-15T06:33:56.031Z,2.28
2023-02-15T06:36:30.034Z,2.23
2023-02-15T06:37:31.090Z,2.20
2023-02-15T06:38:31.162Z,2.16
2023-02-15T06:39:31.234Z,2.16
2023-02-15T06:40:31.300Z,2.17
2023-02-15T06:41:31.430Z,2.17
2023-02-15T06:42:31.496Z,2.20
2023-02-15T06:43:31.579Z,2.20
2023-02-15T06:44:31.662Z,2.22
2023-02-15T06:45:31.832Z,2.20
2023-02-15T06:46:31.848Z,2.20
2023-02-15T06:47:31.896Z,2.20
2023-02-15T06:48:31.996Z,2.20
2023-02-15T06:49:32.135Z,2.22
2023-02-15T06:50:32.142Z,2.22
2023-02-15T06:51:32.312Z,2.22
2023-02-15T06:52:32.287Z,2.20
2023-02-15T06:53:32.415Z,2.22
2023-02-15T06:54:32.556Z,2.22
2023-02-15T06:55:32.582Z,2.20
2023-02-15T06:56:32.700Z,2.20
2023-02-15T06:57:32.784Z,2.20
2023-02-15T06:58:32.808Z,2.20
2023-02-15T06:59:32.865Z,2.20
2023-02-15T07:00:32.949Z,2.20
2023-02-15T07:01:33.048Z,2.22
2023-02-15T07:02:33.085Z,2.20
2023-02-15T07:03:33.210Z,2.19
2023-02-15T07:04:33.321Z,2.20
2023-02-15T07:05:33.352Z,2.20
2023-02-15T07:06:33.474Z,2.20
2023-02-15T07:07:33.553Z,2.19
2023-02-15T07:08:33.614Z,2.19
2023-02-15T07:09:33.681Z,2.19
2023-02-15T07:10:33.772Z,2.19
2023-02-15T07:11:33.828Z,2.20
2023-02-15T07:12:33.935Z,2.22
2023-02-15T07:13:34.064Z,2.19
2023-02-15T07:14:34.078Z,2.19
2023-02-15T07:15:34.169Z,2.20
2023-02-15T07:16:34.231Z,2.22
2023-02-15T07:17:36.491Z,2.22
2023-02-15T07:18:34.442Z,2.22
2023-02-15T07:19:34.487Z,2.22
2023-02-15T07:20:37.223Z,2.22
2023-02-15T07:21:34.693Z,2.22
2023-02-15T07:22:34.758Z,2.22
2023-02-15T07:23:34.803Z,2.22
2023-02-15T07:24:34.904Z,2.23
2023-02-15T07:25:34.985Z,2.26
2023-02-15T07:26:35.048Z,2.26
2023-02-15T07:27:35.177Z,2.23
2023-02-15T07:28:35.255Z,2.23
2023-02-15T07:29:35.337Z,2.23
2023-02-15T07:30:35.408Z,2.23
2023-02-15T07:31:35.522Z,2.22
2023-02-15T07:32:35.758Z,2.22
2023-02-15T07:33:35.703Z,2.23
2023-02-15T07:34:35.735Z,2.26
2023-02-15T07:35:35.825Z,2.26
2023-02-15T07:36:35.890Z,2.27
2023-02-15T07:37:36.078Z,2.27
2023-02-15T07:38:36.021Z,2.28
2023-02-15T07:39:36.111Z,2.30
2023-02-15T07:40:36.194Z,2.31
2023-02-15T07:41:36.288Z,2.33
2023-02-15T07:42:36.352Z,2.33
2023-02-15T07:43:36.516Z,2.35
2023-02-15T07:44:36.537Z,2.37
2023-02-15T07:45:36.655Z,2.37
2023-02-15T07:46:36.765Z,2.40
2023-02-15T07:47:36.794Z,2.40
2023-02-15T07:48:36.913Z,2.41
2023-02-15T07:49:37.005Z,2.44
2023-02-15T07:50:37.054Z,2.46
2023-02-15T07:51:37.153Z,2.46
2023-02-15T07:52:37.220Z,2.49
2023-02-15T07:53:37.325Z,2.51
2023-02-15T07:54:37.395Z,2.52
2023-02-15T07:55:37.453Z,2.55
2023-02-15T07:56:37.493Z,2.56
2023-02-15T07:57:37.600Z,2.59
2023-02-15T07:58:37.708Z,2.63
2023-02-15T07:59:37.768Z,2.64
2023-02-15T08:00:37.822Z,2.67
2023-02-15T08:01:37.914Z,2.69
2023-02-15T08:02:37.985Z,2.69
2023-02-15T08:03:38.099Z,2.71
2023-02-15T08:04:38.113Z,2.74
2023-02-15T08:05:38.260Z,2.76
2023-02-15T08:06:38.305Z,2.79
2023-02-15T08:07:38.403Z,2.79
2023-02-15T08:08:38.511Z,2.81
2023-02-15T08:09:38.566Z,2.84
2023-02-15T08:10:38.628Z,2.84
2023-02-15T08:11:38.779Z,2.87
2023-02-15T08:12:38.833Z,2.89
2023-02-15T08:13:39.656Z,2.91
2023-02-15T08:14:38.996Z,2.92
2023-02-15T08:15:39.058Z,2.94
2023-02-15T08:16:39.206Z,2.98
2023-02-15T08:17:39.212Z,2.98
2023-02-15T08:18:39.294Z,3.02
2023-02-15T08:19:39.339Z,3.03
2023-02-15T08:20:39.462Z,3.06
2023-02-15T08:21:39.536Z,3.09
2023-02-15T08:22:39.591Z,3.12
2023-02-15T08:23:39.702Z,3.13
2023-02-15T08:24:39.758Z,3.16
2023-02-15T08:25:39.868Z,3.20
2023-02-15T08:26:42.022Z,3.20
2023-02-15T08:27:40.019Z,3.23
2023-02-15T08:28:40.223Z,3.23
2023-02-15T08:29:40.246Z,3.25
2023-02-15T08:30:40.235Z,3.27
2023-02-15T08:31:40.493Z,3.28
2023-02-15T08:32:40.407Z,3.33
2023-02-15T08:33:40.569Z,3.34
2023-02-15T08:34:40.631Z,3.39
2023-02-15T08:35:40.716Z,3.40
2023-02-15T08:36:40.728Z,3.43
2023-02-15T08:37:40.831Z,3.44
2023-02-15T08:38:40.940Z,3.46
2023-02-15T08:39:40.991Z,3.49
2023-02-15T08:40:41.084Z,3.50
2023-02-15T08:41:41.173Z,3.53
2023-02-15T08:42:41.271Z,3.57
2023-02-15T08:43:41.375Z,3.60
2023-02-15T08:44:41.429Z,3.60
2023-02-15T08:45:41.596Z,3.64
2023-02-15T08:46:41.643Z,3.65
2023-02-15T08:47:41.705Z,3.68
2023-02-15T08:48:41.795Z,3.68
2023-02-15T08:49:41.848Z,3.68
2023-02-15T08:50:41.959Z,3.72
2023-02-15T08:51:42.029Z,3.75
2023-02-15T08:52:42.115Z,3.78
2023-02-15T08:53:42.231Z,3.79
2023-02-15T08:54:42.301Z,3.83
2023-02-15T08:55:42.342Z,3.88
2023-02-15T08:56:42.455Z,3.94
2023-02-15T08:57:42.556Z,4.00
2023-02-15T08:58:42.636Z,4.03
2023-02-15T08:59:42.687Z,4.06
2023-02-15T09:00:42.840Z,4.06
2023-02-15T09:01:42.900Z,4.08
2023-02-15T09:02:42.976Z,4.12
2023-02-15T09:03:43.097Z,4.14
2023-02-15T09:04:43.168Z,4.16
2023-02-15T09:05:43.205Z,4.18
2023-02-15T09:06:43.310Z,4.22
2023-02-15T09:07:43.400Z,4.26
2023-02-15T09:08:43.524Z,4.29
2023-02-15T09:09:43.574Z,4.36
2023-02-15T09:10:43.671Z,4.44
2023-02-15T09:11:43.729Z,4.50
2023-02-15T09:12:43.831Z,4.57
2023-02-15T09:13:44.095Z,4.62
2023-02-15T09:14:44.019Z,4.70
2023-02-15T09:15:44.121Z,4.76
2023-02-15T09:16:44.252Z,4.86
2023-02-15T09:17:44.297Z,4.94
2023-02-15T09:18:44.439Z,4.96
2023-02-15T09:19:44.497Z,4.99
2023-02-15T09:20:44.605Z,5.02
2023-02-15T09:21:44.646Z,5.07
2023-02-15T09:22:44.747Z,5.12
2023-02-15T09:23:44.924Z,5.16
2023-02-15T09:24:44.870Z,5.22
2023-02-15T09:25:44.963Z,5.27
2023-02-15T09:26:45.122Z,5.30
2023-02-15T09:27:45.125Z,5.35
2023-02-15T09:28:45.246Z,5.41
2023-02-15T09:29:45.315Z,5.50
2023-02-15T09:30:45.512Z,5.59
2023-02-15T09:31:45.788Z,5.68
2023-02-15T09:32:45.599Z,5.77
2023-02-15T09:33:45.704Z,5.86
2023-02-15T09:34:45.731Z,5.95
2023-02-15T09:35:45.799Z,6.06
2023-02-15T09:36:45.876Z,6.13
2023-02-15T09:37:45.953Z,6.25
2023-02-15T09:38:46.050Z,6.32
2023-02-15T09:39:47.732Z,6.36
2023-02-15T09:40:46.178Z,6.44
2023-02-15T09:41:46.245Z,6.48
2023-02-15T09:42:46.334Z,6.50
2023-02-15T09:43:46.420Z,6.50
2023-02-15T09:44:46.508Z,6.53
2023-02-15T09:45:46.577Z,6.54
2023-02-15T09:46:46.646Z,6.53
2023-02-15T09:47:46.703Z,6.53
2023-02-15T09:48:46.844Z,6.56
2023-02-15T09:49:46.860Z,6.54
2023-02-15T09:50:46.970Z,6.58
2023-02-15T09:51:47.031Z,6.59
2023-02-15T09:52:47.090Z,6.58
2023-02-15T09:53:47.203Z,6.56
2023-02-15T09:54:47.248Z,6.56
2023-02-15T09:55:47.392Z,6.56
2023-02-15T09:56:47.469Z,6.61
2023-02-15T09:57:47.529Z,6.62
2023-02-15T09:58:47.665Z,6.65
2023-02-15T09:59:47.757Z,6.72
2023-02-15T10:00:47.793Z,6.77
2023-02-15T10:01:47.881Z,6.84
2023-02-15T10:02:47.962Z,6.87
2023-02-15T10:03:48.069Z,6.91
2023-02-15T10:04:48.199Z,6.95
2023-02-15T10:05:48.218Z,6.99
2023-02-15T10:06:48.314Z,7.02
2023-02-15T10:07:48.368Z,7.08
2023-02-15T10:08:48.509Z,7.16
2023-02-15T10:09:48.566Z,7.20
2023-02-15T10:10:48.663Z,7.24
2023-02-15T10:11:48.712Z,7.31
2023-02-15T10:12:48.816Z,7.37
2023-02-15T10:13:48.929Z,7.45
2023-02-15T10:14:48.973Z,7.53
2023-02-15T10:15:49.046Z,7.60
2023-02-15T10:16:49.176Z,7.66
2023-02-15T10:17:49.210Z,7.69
2023-02-15T10:18:49.278Z,7.71
2023-02-15T10:19:49.373Z,7.75
2023-02-15T10:20:49.436Z,7.81
2023-02-15T10:21:49.534Z,7.85
2023-02-15T10:22:49.669Z,7.87
2023-02-15T10:23:49.745Z,7.92
2023-02-15T10:24:49.819Z,7.92
2023-02-15T10:25:49.870Z,7.92
2023-02-15T10:26:49.971Z,7.90
2023-02-15T10:27:50.040Z,7.87
2023-02-15T10:28:50.176Z,7.82
2023-02-15T10:29:50.255Z,7.75
2023-02-15T10:30:50.355Z,7.74
2023-02-15T10:31:50.510Z,7.74
2023-02-15T10:32:50.532Z,7.77
2023-02-15T10:33:50.664Z,7.77
2023-02-15T10:34:50.695Z,7.78
2023-02-15T10:35:52.377Z,7.77
2023-02-15T10:36:50.822Z,7.77
2023-02-15T10:37:50.885Z,7.75
2023-02-15T10:38:50.980Z,7.75
2023-02-15T10:39:51.046Z,7.75
2023-02-15T10:40:51.142Z,7.78
2023-02-15T10:41:51.203Z,7.81
2023-02-15T10:42:51.304Z,7.84
2023-02-15T10:43:51.378Z,7.89
2023-02-15T10:44:51.462Z,7.90
2023-02-15T10:45:51.561Z,7.99
2023-02-15T10:46:51.616Z,8.07
2023-02-15T10:47:51.702Z,8.12
2023-02-15T10:48:51.795Z,8.17
2023-02-15T10:49:51.819Z,8.21
2023-02-15T10:50:51.924Z,8.29
2023-02-15T10:51:51.978Z,8.30
2023-02-15T10:52:52.061Z,8.30
2023-02-15T10:53:52.140Z,8.33
2023-02-15T10:54:52.235Z,8.35
2023-02-15T10:55:52.291Z,8.39
2023-02-15T10:56:52.422Z,8.45
2023-02-15T10:57:52.501Z,8.53
2023-02-15T10:58:52.591Z,8.58
2023-02-15T10:59:52.651Z,8.66
2023-02-15T11:00:52.782Z,8.76
2023-02-15T11:01:52.906Z,8.87
2023-02-15T11:02:52.958Z,8.97
2023-02-15T11:03:53.063Z,9.09
2023-02-15T11:04:53.169Z,9.21
2023-02-15T11:05:53.196Z,9.31
2023-02-15T11:06:53.286Z,9.39
2023-02-15T11:07:53.379Z,9.45
2023-02-15T11:08:53.457Z,9.48
2023-02-15T11:09:53.545Z,9.52
2023-02-15T11:10:53.598Z,9.52
2023-02-15T11:11:53.697Z,9.53
2023-02-15T11:12:53.792Z,9.56
2023-02-15T11:13:53.870Z,9.53
2023-02-15T11:14:53.946Z,9.56
2023-02-15T11:15:54.090Z,9.57
2023-02-15T11:16:54.081Z,9.61
2023-02-15T11:17:54.158Z,9.64
2023-02-15T11:18:54.246Z,9.68
2023-02-15T11:19:54.310Z,9.73
2023-02-15T11:20:54.401Z,9.76
2023-02-15T11:21:54.456Z,9.81
2023-02-15T11:22:54.545Z,9.82
2023-02-15T11:23:54.631Z,9.86
2023-02-15T11:24:54.725Z,9.88
2023-02-15T11:25:54.731Z,9.86
2023-02-15T11:26:54.856Z,9.83
2023-02-15T11:27:54.902Z,9.82
2023-02-15T11:28:55.045Z,9.83
2023-02-15T11:29:55.104Z,9.86
2023-02-15T11:30:55.354Z,9.91
2023-02-15T11:31:55.405Z,9.94
2023-02-15T11:32:55.310Z,9.97
2023-02-15T11:33:55.483Z,10.01
2023-02-15T11:34:55.486Z,10.06
2023-02-15T11:35:55.561Z,10.14
2023-02-15T11:36:55.652Z,10.17
2023-02-15T11:37:55.730Z,10.19
2023-02-15T11:38:55.829Z,10.25
2023-02-15T11:39:55.857Z,10.30
2023-02-15T11:40:55.915Z,10.37
2023-02-15T11:41:55.991Z,10.44
2023-02-15T11:42:56.076Z,10.53
2023-02-15T11:43:56.154Z,10.56
2023-02-15T11:44:56.250Z,10.62
2023-02-15T11:45:56.348Z,10.66
2023-02-15T11:46:56.405Z,10.73
2023-02-15T11:47:56.488Z,10.76
2023-02-15T11:48:56.573Z,10.81
2023-02-15T11:49:56.636Z,10.88
2023-02-15T11:50:56.721Z,10.94
2023-02-15T11:51:56.785Z,10.98
2023-02-15T11:52:56.879Z,11.06
2023-02-15T11:53:57.001Z,11.10
2023-02-15T11:54:57.088Z,11.17
2023-02-15T11:55:57.178Z,11.21
2023-02-15T11:56:57.219Z,11.29
2023-02-15T11:57:57.283Z,11.31
2023-02-15T11:58:57.371Z,11.36
2023-02-15T11:59:57.479Z,11.43
2023-02-15T12:00:57.594Z,11.44
2023-02-15T12:01:57.598Z,11.44
2023-02-15T12:02:57.747Z,11.44
2023-02-15T12:03:57.919Z,11.44
2023-02-15T12:04:58.583Z,11.46
2023-02-15T12:05:57.898Z,11.43
2023-02-15T12:07:02.237Z,11.43
2023-02-15T12:07:58.178Z,11.41
2023-02-15T12:08:58.211Z,11.38
2023-02-15T12:09:58.223Z,11.38
2023-02-15T12:10:58.342Z,11.34
2023-02-15T12:11:58.489Z,11.35
2023-02-15T12:12:58.556Z,11.36
2023-02-15T12:13:58.661Z,11.39
2023-02-15T12:14:58.680Z,11.41
2023-02-15T12:15:58.833Z,11.44
2023-02-15T12:16:58.836Z,11.43
2023-02-15T12:17:58.921Z,11.41
2023-02-15T12:18:59.021Z,11.43
2023-02-15T12:19:59.056Z,11.41
2023-02-15T12:20:59.271Z,11.43
2023-02-15T12:21:59.191Z,11.47
2023-02-15T12:22:59.375Z,11.50
2023-02-15T12:23:59.674Z,11.54
2023-02-15T12:24:59.470Z,11.59
2023-02-15T12:25:59.553Z,11.65
2023-02-15T12:26:59.652Z,11.70
2023-02-15T12:27:59.752Z,11.74
2023-02-15T12:28:59.986Z,11.75
2023-02-15T12:29:59.951Z,11.78
2023-02-15T12:31:00.270Z,11.83
2023-02-15T12:32:00.250Z,11.86
2023-02-15T12:33:00.196Z,11.89
2023-02-15T12:34:00.335Z,11.96
2023-02-15T12:35:01.511Z,12.02
2023-02-15T12:36:00.699Z,12.05
2023-02-15T12:37:08.105Z,12.08
2023-02-15T12:38:01.074Z,12.08
2023-02-15T12:39:00.653Z,12.11
2023-02-15T12:40:00.697Z,12.11
2023-02-15T12:41:01.161Z,12.15
2023-02-15T12:42:00.909Z,12.16
2023-02-15T12:43:00.971Z,12.20
2023-02-15T12:44:01.067Z,12.24
2023-02-15T12:45:01.137Z,12.26
2023-02-15T12:46:01.545Z,12.26
2023-02-15T12:47:01.379Z,12.29
2023-02-15T12:48:01.370Z,12.31
2023-02-15T12:49:01.516Z,12.38
2023-02-15T12:50:01.559Z,12.41
2023-02-15T12:51:01.669Z,12.44
2023-02-15T12:52:01.742Z,12.45
2023-02-15T12:53:01.808Z,12.48
2023-02-15T12:54:01.901Z,12.52
2023-02-15T12:55:01.938Z,12.54
2023-02-15T12:56:02.041Z,12.52
2023-02-15T12:57:02.109Z,12.52
2023-02-15T12:58:02.209Z,12.51
2023-02-15T12:59:02.295Z,12.51
2023-02-15T13:00:02.388Z,12.51
2023-02-15T13:01:02.910Z,12.51
2023-02-15T13:02:02.666Z,12.49
2023-02-15T13:03:02.584Z,12.48
2023-02-15T13:04:02.680Z,12.49
2023-02-15T13:05:02.762Z,12.51
2023-02-15T13:06:02.825Z,12.52
2023-02-15T13:07:02.885Z,12.52
2023-02-15T13:08:03.042Z,12.56
2023-02-15T13:09:03.095Z,12.56
2023-02-15T13:10:03.165Z,12.59
2023-02-15T13:11:04.459Z,12.59
2023-02-15T13:12:03.321Z,12.63
2023-02-15T13:13:03.382Z,12.62
2023-02-15T13:14:03.506Z,12.60
2023-02-15T13:15:04.119Z,12.62
2023-02-15T13:16:03.805Z,12.63
2023-02-15T13:17:03.741Z,12.63